sensor_id;sensor_type;location;lat;lon;timestamp;temperature;humidity
42743;DHT22;28397;44.552;-0.848;2022-08-23T00:01:52;22.90;99.90
42743;DHT22;28397;44.552;-0.848;2022-08-23T00:04:32;22.80;99.90
42743;DHT22;28397;44.552;-0.848;2022-08-23T00:06:58;22.90;99.90
42743;DHT22;28397;44.552;-0.848;2022-08-23T00:09:27;22.90;99.90
42743;DHT22;28397;44.552;-0.848;2022-08-23T00:12:13;23.00;99.90
42743;DHT22;28397;44.552;-0.848;2022-08-23T00:14:43;22.80;99.90
42743;DHT22;28397;44.552;-0.848;2022-08-23T00:17:09;22.90;99.90
42743;DHT22;28397;44.552;-0.848;2022-08-23T00:19:36;23.00;99.90
42743;DHT22;28397;44.552;-0.848;2022-08-23T00:22:03;23.00;99.90
42743;DHT22;28397;44.552;-0.848;2022-08-23T00:24:28;22.90;99.90
42743;DHT22;28397;44.552;-0.848;2022-08-23T00:29:42;23.00;99.90
42743;DHT22;28397;44.552;-0.848;2022-08-23T00:32:09;22.90;99.90
42743;DHT22;28397;44.552;-0.848;2022-08-23T00:34:35;23.00;99.90
42743;DHT22;28397;44.552;-0.848;2022-08-23T00:37:02;22.70;99.90
42743;DHT22;28397;44.552;-0.848;2022-08-23T00:39:28;23.00;99.90
42743;DHT22;28397;44.552;-0.848;2022-08-23T00:42:02;22.80;99.90
42743;DHT22;28397;44.552;-0.848;2022-08-23T00:44:48;23.00;99.90
42743;DHT22;28397;44.552;-0.848;2022-08-23T00:47:32;22.90;99.90
42743;DHT22;28397;44.552;-0.848;2022-08-23T00:55:38;22.90;99.90
42743;DHT22;28397;44.552;-0.848;2022-08-23T00:58:07;22.80;99.90
42743;DHT22;28397;44.552;-0.848;2022-08-23T01:00:33;22.70;99.90
42743;DHT22;28397;44.552;-0.848;2022-08-23T01:03:01;23.00;99.90
42743;DHT22;28397;44.552;-0.848;2022-08-23T01:05:35;22.90;99.90
42743;DHT22;28397;44.552;-0.848;2022-08-23T01:08:06;22.90;99.90
42743;DHT22;28397;44.552;-0.848;2022-08-23T01:10:41;22.90;99.90
42743;DHT22;28397;44.552;-0.848;2022-08-23T01:13:15;22.70;99.90
42743;DHT22;28397;44.552;-0.848;2022-08-23T01:15:47;22.70;99.90
42743;DHT22;28397;44.552;-0.848;2022-08-23T01:18:17;23.00;99.90
42743;DHT22;28397;44.552;-0.848;2022-08-23T01:26:02;22.60;99.90
42743;DHT22;28397;44.552;-0.848;2022-08-23T01:28:28;22.80;99.90
42743;DHT22;28397;44.552;-0.848;2022-08-23T01:30:54;22.70;99.90
42743;DHT22;28397;44.552;-0.848;2022-08-23T01:33:20;22.80;99.90
42743;DHT22;28397;44.552;-0.848;2022-08-23T01:35:49;22.70;99.90
42743;DHT22;28397;44.552;-0.848;2022-08-23T01:38:15;22.80;99.90
42743;DHT22;28397;44.552;-0.848;2022-08-23T01:40:41;22.60;99.90
42743;DHT22;28397;44.552;-0.848;2022-08-23T01:43:08;22.60;99.90
42743;DHT22;28397;44.552;-0.848;2022-08-23T01:45:34;22.70;99.90
42743;DHT22;28397;44.552;-0.848;2022-08-23T01:48:01;22.80;99.90
42743;DHT22;28397;44.552;-0.848;2022-08-23T01:50:28;22.90;99.90
42743;DHT22;28397;44.552;-0.848;2022-08-23T01:52:54;22.70;99.90
42743;DHT22;28397;44.552;-0.848;2022-08-23T01:55:20;22.70;99.90
42743;DHT22;28397;44.552;-0.848;2022-08-23T01:57:49;22.70;99.90
42743;DHT22;28397;44.552;-0.848;2022-08-23T02:00:18;22.70;99.90
42743;DHT22;28397;44.552;-0.848;2022-08-23T02:02:44;22.70;99.90
42743;DHT22;28397;44.552;-0.848;2022-08-23T02:05:11;22.70;99.90
42743;DHT22;28397;44.552;-0.848;2022-08-23T02:07:37;22.70;99.90
42743;DHT22;28397;44.552;-0.848;2022-08-23T02:10:05;22.50;99.90
42743;DHT22;28397;44.552;-0.848;2022-08-23T02:12:30;22.50;99.90
42743;DHT22;28397;44.552;-0.848;2022-08-23T02:14:57;22.60;99.90
42743;DHT22;28397;44.552;-0.848;2022-08-23T02:17:23;22.60;99.90
42743;DHT22;28397;44.552;-0.848;2022-08-23T02:19:49;22.50;99.90
42743;DHT22;28397;44.552;-0.848;2022-08-23T02:22:15;22.50;99.90
42743;DHT22;28397;44.552;-0.848;2022-08-23T02:24:43;22.60;99.90
42743;DHT22;28397;44.552;-0.848;2022-08-23T02:27:09;22.60;99.90
42743;DHT22;28397;44.552;-0.848;2022-08-23T02:29:36;22.50;99.90
42743;DHT22;28397;44.552;-0.848;2022-08-23T02:32:03;22.40;99.90
42743;DHT22;28397;44.552;-0.848;2022-08-23T02:34:30;22.60;99.90
42743;DHT22;28397;44.552;-0.848;2022-08-23T02:36:56;22.40;99.90
42743;DHT22;28397;44.552;-0.848;2022-08-23T02:39:22;22.40;99.90
42743;DHT22;28397;44.552;-0.848;2022-08-23T02:41:48;22.50;99.90
42743;DHT22;28397;44.552;-0.848;2022-08-23T02:44:14;22.70;99.90
42743;DHT22;28397;44.552;-0.848;2022-08-23T02:46:41;22.60;99.90
42743;DHT22;28397;44.552;-0.848;2022-08-23T02:49:07;22.60;99.90
42743;DHT22;28397;44.552;-0.848;2022-08-23T02:51:33;22.50;99.90
42743;DHT22;28397;44.552;-0.848;2022-08-23T02:53:59;22.70;99.90
42743;DHT22;28397;44.552;-0.848;2022-08-23T02:56:25;22.60;99.90
42743;DHT22;28397;44.552;-0.848;2022-08-23T02:58:51;22.40;99.90
42743;DHT22;28397;44.552;-0.848;2022-08-23T03:01:26;22.40;99.90
42743;DHT22;28397;44.552;-0.848;2022-08-23T03:03:53;22.70;99.90
42743;DHT22;28397;44.552;-0.848;2022-08-23T03:06:19;22.60;99.90
42743;DHT22;28397;44.552;-0.848;2022-08-23T03:08:45;22.50;99.90
42743;DHT22;28397;44.552;-0.848;2022-08-23T03:11:13;22.60;99.90
42743;DHT22;28397;44.552;-0.848;2022-08-23T03:13:40;22.50;99.90
42743;DHT22;28397;44.552;-0.848;2022-08-23T03:16:08;22.60;99.90
42743;DHT22;28397;44.552;-0.848;2022-08-23T03:18:35;22.60;99.90
42743;DHT22;28397;44.552;-0.848;2022-08-23T03:21:04;22.70;99.90
42743;DHT22;28397;44.552;-0.848;2022-08-23T03:23:30;22.50;99.90
42743;DHT22;28397;44.552;-0.848;2022-08-23T03:25:57;22.60;99.90
42743;DHT22;28397;44.552;-0.848;2022-08-23T03:28:25;22.60;99.90
42743;DHT22;28397;44.552;-0.848;2022-08-23T03:30:51;22.40;99.90
42743;DHT22;28397;44.552;-0.848;2022-08-23T03:33:17;22.50;99.90
42743;DHT22;28397;44.552;-0.848;2022-08-23T03:35:43;22.40;99.90
42743;DHT22;28397;44.552;-0.848;2022-08-23T03:38:09;22.40;99.90
42743;DHT22;28397;44.552;-0.848;2022-08-23T03:40:35;22.50;99.90
42743;DHT22;28397;44.552;-0.848;2022-08-23T03:43:00;22.40;99.90
42743;DHT22;28397;44.552;-0.848;2022-08-23T03:45:27;22.60;99.90
42743;DHT22;28397;44.552;-0.848;2022-08-23T03:47:53;22.40;99.90
42743;DHT22;28397;44.552;-0.848;2022-08-23T03:50:20;22.30;99.90
42743;DHT22;28397;44.552;-0.848;2022-08-23T03:52:46;22.40;99.90
42743;DHT22;28397;44.552;-0.848;2022-08-23T03:55:13;22.20;99.90
42743;DHT22;28397;44.552;-0.848;2022-08-23T03:57:39;22.30;99.90
42743;DHT22;28397;44.552;-0.848;2022-08-23T04:00:06;22.20;99.90
42743;DHT22;28397;44.552;-0.848;2022-08-23T04:02:33;22.20;99.90
42743;DHT22;28397;44.552;-0.848;2022-08-23T04:04:58;22.60;99.90
42743;DHT22;28397;44.552;-0.848;2022-08-23T04:07:25;22.40;99.90
42743;DHT22;28397;44.552;-0.848;2022-08-23T04:09:51;22.30;99.90
42743;DHT22;28397;44.552;-0.848;2022-08-23T04:12:16;22.30;99.90
42743;DHT22;28397;44.552;-0.848;2022-08-23T04:14:42;22.20;99.90
42743;DHT22;28397;44.552;-0.848;2022-08-23T04:17:10;22.30;99.90
42743;DHT22;28397;44.552;-0.848;2022-08-23T04:19:36;22.20;99.90
42743;DHT22;28397;44.552;-0.848;2022-08-23T04:22:02;22.30;99.90
42743;DHT22;28397;44.552;-0.848;2022-08-23T04:24:28;22.40;99.90
42743;DHT22;28397;44.552;-0.848;2022-08-23T04:26:54;22.30;99.90
42743;DHT22;28397;44.552;-0.848;2022-08-23T04:29:20;22.20;99.90
42743;DHT22;28397;44.552;-0.848;2022-08-23T04:31:47;22.20;99.90
42743;DHT22;28397;44.552;-0.848;2022-08-23T04:34:13;22.20;99.90
42743;DHT22;28397;44.552;-0.848;2022-08-23T04:36:40;22.30;99.90
42743;DHT22;28397;44.552;-0.848;2022-08-23T04:39:07;22.20;99.90
42743;DHT22;28397;44.552;-0.848;2022-08-23T04:41:34;22.40;99.90
42743;DHT22;28397;44.552;-0.848;2022-08-23T04:44:20;22.20;99.90
42743;DHT22;28397;44.552;-0.848;2022-08-23T04:46:46;22.20;99.90
42743;DHT22;28397;44.552;-0.848;2022-08-23T04:49:14;22.30;99.90
42743;DHT22;28397;44.552;-0.848;2022-08-23T04:51:40;22.20;99.90
42743;DHT22;28397;44.552;-0.848;2022-08-23T04:54:05;22.20;99.90
42743;DHT22;28397;44.552;-0.848;2022-08-23T04:56:32;22.20;99.90
42743;DHT22;28397;44.552;-0.848;2022-08-23T04:58:58;22.10;99.90
42743;DHT22;28397;44.552;-0.848;2022-08-23T05:01:24;22.20;99.90
42743;DHT22;28397;44.552;-0.848;2022-08-23T05:03:51;22.30;99.90
42743;DHT22;28397;44.552;-0.848;2022-08-23T05:06:16;22.10;99.90
42743;DHT22;28397;44.552;-0.848;2022-08-23T05:08:42;22.10;99.90
42743;DHT22;28397;44.552;-0.848;2022-08-23T05:11:09;22.10;99.90
42743;DHT22;28397;44.552;-0.848;2022-08-23T05:13:36;22.20;99.90
42743;DHT22;28397;44.552;-0.848;2022-08-23T05:16:03;22.10;99.90
42743;DHT22;28397;44.552;-0.848;2022-08-23T05:18:29;22.20;99.90
42743;DHT22;28397;44.552;-0.848;2022-08-23T05:20:55;22.00;99.90
42743;DHT22;28397;44.552;-0.848;2022-08-23T05:23:21;22.00;99.90
42743;DHT22;28397;44.552;-0.848;2022-08-23T05:25:47;22.10;99.90
42743;DHT22;28397;44.552;-0.848;2022-08-23T05:28:23;22.20;99.90
42743;DHT22;28397;44.552;-0.848;2022-08-23T05:31:02;22.00;99.90
42743;DHT22;28397;44.552;-0.848;2022-08-23T05:33:30;22.10;99.90
42743;DHT22;28397;44.552;-0.848;2022-08-23T05:35:56;22.20;99.90
42743;DHT22;28397;44.552;-0.848;2022-08-23T05:38:24;21.90;99.90
42743;DHT22;28397;44.552;-0.848;2022-08-23T05:40:52;22.10;99.90
42743;DHT22;28397;44.552;-0.848;2022-08-23T05:43:18;21.90;99.90
42743;DHT22;28397;44.552;-0.848;2022-08-23T05:45:45;22.20;99.90
42743;DHT22;28397;44.552;-0.848;2022-08-23T05:48:12;22.10;99.90
42743;DHT22;28397;44.552;-0.848;2022-08-23T05:50:38;22.20;99.90
42743;DHT22;28397;44.552;-0.848;2022-08-23T05:53:04;22.10;99.90
42743;DHT22;28397;44.552;-0.848;2022-08-23T05:55:31;22.10;99.90
42743;DHT22;28397;44.552;-0.848;2022-08-23T05:57:56;22.20;99.90
42743;DHT22;28397;44.552;-0.848;2022-08-23T06:00:22;22.10;99.90
42743;DHT22;28397;44.552;-0.848;2022-08-23T06:02:48;22.10;99.90
42743;DHT22;28397;44.552;-0.848;2022-08-23T06:05:14;22.30;99.90
42743;DHT22;28397;44.552;-0.848;2022-08-23T06:07:40;22.10;99.90
42743;DHT22;28397;44.552;-0.848;2022-08-23T06:10:07;22.00;99.90
42743;DHT22;28397;44.552;-0.848;2022-08-23T06:12:33;22.20;99.90
42743;DHT22;28397;44.552;-0.848;2022-08-23T06:14:59;22.40;99.90
42743;DHT22;28397;44.552;-0.848;2022-08-23T06:17:25;22.60;99.90
42743;DHT22;28397;44.552;-0.848;2022-08-23T06:19:51;22.40;99.90
42743;DHT22;28397;44.552;-0.848;2022-08-23T06:22:17;22.40;99.90
42743;DHT22;28397;44.552;-0.848;2022-08-23T06:24:43;22.50;99.90
42743;DHT22;28397;44.552;-0.848;2022-08-23T06:27:09;22.80;99.90
42743;DHT22;28397;44.552;-0.848;2022-08-23T06:29:36;22.80;99.90
42743;DHT22;28397;44.552;-0.848;2022-08-23T06:32:03;22.70;99.90
42743;DHT22;28397;44.552;-0.848;2022-08-23T06:34:32;22.80;99.90
42743;DHT22;28397;44.552;-0.848;2022-08-23T06:37:05;22.70;99.90
42743;DHT22;28397;44.552;-0.848;2022-08-23T06:39:31;23.10;99.90
42743;DHT22;28397;44.552;-0.848;2022-08-23T06:42:06;22.80;99.90
42743;DHT22;28397;44.552;-0.848;2022-08-23T06:44:34;22.90;99.90
42743;DHT22;28397;44.552;-0.848;2022-08-23T06:47:00;22.80;99.90
42743;DHT22;28397;44.552;-0.848;2022-08-23T06:49:26;23.10;99.90
42743;DHT22;28397;44.552;-0.848;2022-08-23T06:51:54;22.80;99.90
42743;DHT22;28397;44.552;-0.848;2022-08-23T06:54:23;23.10;99.90
42743;DHT22;28397;44.552;-0.848;2022-08-23T06:56:49;23.20;99.90
42743;DHT22;28397;44.552;-0.848;2022-08-23T06:59:15;23.10;99.90
42743;DHT22;28397;44.552;-0.848;2022-08-23T07:04:13;23.20;99.90
42743;DHT22;28397;44.552;-0.848;2022-08-23T07:06:39;23.20;99.90
42743;DHT22;28397;44.552;-0.848;2022-08-23T07:09:05;23.00;99.90
42743;DHT22;28397;44.552;-0.848;2022-08-23T07:11:32;23.10;99.90
42743;DHT22;28397;44.552;-0.848;2022-08-23T07:14:04;23.20;99.90
42743;DHT22;28397;44.552;-0.848;2022-08-23T07:16:54;23.00;99.90
42743;DHT22;28397;44.552;-0.848;2022-08-23T07:19:23;23.20;99.90
42743;DHT22;28397;44.552;-0.848;2022-08-23T07:21:51;23.00;99.90
42743;DHT22;28397;44.552;-0.848;2022-08-23T07:24:18;23.40;99.90
42743;DHT22;28397;44.552;-0.848;2022-08-23T07:26:45;23.30;99.90
42743;DHT22;28397;44.552;-0.848;2022-08-23T07:29:12;23.30;99.90
42743;DHT22;28397;44.552;-0.848;2022-08-23T07:31:43;23.10;99.90
42743;DHT22;28397;44.552;-0.848;2022-08-23T07:34:09;23.30;99.90
42743;DHT22;28397;44.552;-0.848;2022-08-23T07:36:35;23.60;99.90
42743;DHT22;28397;44.552;-0.848;2022-08-23T07:39:01;23.70;99.90
42743;DHT22;28397;44.552;-0.848;2022-08-23T07:41:29;23.50;99.90
42743;DHT22;28397;44.552;-0.848;2022-08-23T07:43:57;23.20;99.90
42743;DHT22;28397;44.552;-0.848;2022-08-23T07:46:24;23.40;99.90
42743;DHT22;28397;44.552;-0.848;2022-08-23T07:48:51;23.30;99.90
42743;DHT22;28397;44.552;-0.848;2022-08-23T07:51:17;23.50;99.90
42743;DHT22;28397;44.552;-0.848;2022-08-23T07:53:43;23.40;99.90
42743;DHT22;28397;44.552;-0.848;2022-08-23T07:56:12;23.60;99.90
42743;DHT22;28397;44.552;-0.848;2022-08-23T07:58:38;23.70;99.90
42743;DHT22;28397;44.552;-0.848;2022-08-23T08:01:24;23.50;99.90
42743;DHT22;28397;44.552;-0.848;2022-08-23T08:03:53;23.30;99.90
42743;DHT22;28397;44.552;-0.848;2022-08-23T08:06:25;23.70;99.90
42743;DHT22;28397;44.552;-0.848;2022-08-23T08:08:52;23.50;99.90
42743;DHT22;28397;44.552;-0.848;2022-08-23T08:11:22;23.90;99.90
42743;DHT22;28397;44.552;-0.848;2022-08-23T08:13:51;23.50;99.90
42743;DHT22;28397;44.552;-0.848;2022-08-23T08:16:40;23.80;99.90
42743;DHT22;28397;44.552;-0.848;2022-08-23T08:19:12;23.90;99.90
42743;DHT22;28397;44.552;-0.848;2022-08-23T08:21:39;24.50;99.90
42743;DHT22;28397;44.552;-0.848;2022-08-23T08:24:07;24.70;99.90
42743;DHT22;28397;44.552;-0.848;2022-08-23T08:26:34;24.60;99.90
42743;DHT22;28397;44.552;-0.848;2022-08-23T08:29:00;24.80;99.90
42743;DHT22;28397;44.552;-0.848;2022-08-23T08:31:26;24.50;99.90
42743;DHT22;28397;44.552;-0.848;2022-08-23T08:33:52;24.70;99.90
42743;DHT22;28397;44.552;-0.848;2022-08-23T08:36:42;24.50;99.90
42743;DHT22;28397;44.552;-0.848;2022-08-23T08:39:14;24.40;99.90
42743;DHT22;28397;44.552;-0.848;2022-08-23T08:53:11;26.00;99.90
42743;DHT22;28397;44.552;-0.848;2022-08-23T08:55:46;25.80;99.90
42743;DHT22;28397;44.552;-0.848;2022-08-23T08:58:47;25.80;99.90
42743;DHT22;28397;44.552;-0.848;2022-08-23T09:01:17;25.80;99.90
42743;DHT22;28397;44.552;-0.848;2022-08-23T09:03:43;26.20;99.90
42743;DHT22;28397;44.552;-0.848;2022-08-23T09:11:34;25.80;99.90
42743;DHT22;28397;44.552;-0.848;2022-08-23T09:17:20;25.70;99.90
42743;DHT22;28397;44.552;-0.848;2022-08-23T09:50:28;26.10;99.90
42743;DHT22;28397;44.552;-0.848;2022-08-23T09:53:04;26.00;99.90
42743;DHT22;28397;44.552;-0.848;2022-08-23T09:55:34;26.00;99.90
42743;DHT22;28397;44.552;-0.848;2022-08-23T09:58:04;26.20;99.90
42743;DHT22;28397;44.552;-0.848;2022-08-23T10:00:33;26.20;99.90
42743;DHT22;28397;44.552;-0.848;2022-08-23T10:03:27;26.30;99.90
42743;DHT22;28397;44.552;-0.848;2022-08-23T10:05:56;26.00;99.90
42743;DHT22;28397;44.552;-0.848;2022-08-23T10:08:30;25.90;99.90
42743;DHT22;28397;44.552;-0.848;2022-08-23T10:13:42;26.20;99.90
42743;DHT22;28397;44.552;-0.848;2022-08-23T10:26:30;25.60;99.90
42743;DHT22;28397;44.552;-0.848;2022-08-23T10:38:03;26.00;99.90
42743;DHT22;28397;44.552;-0.848;2022-08-23T10:40:43;25.80;99.90
42743;DHT22;28397;44.552;-0.848;2022-08-23T10:45:52;25.70;99.90
42743;DHT22;28397;44.552;-0.848;2022-08-23T10:48:24;26.20;99.90
42743;DHT22;28397;44.552;-0.848;2022-08-23T10:53:44;26.50;99.90
42743;DHT22;28397;44.552;-0.848;2022-08-23T10:56:18;26.70;99.90
42743;DHT22;28397;44.552;-0.848;2022-08-23T10:58:52;26.90;99.90
42743;DHT22;28397;44.552;-0.848;2022-08-23T11:01:23;27.00;99.90
42743;DHT22;28397;44.552;-0.848;2022-08-23T11:03:59;27.10;99.90
42743;DHT22;28397;44.552;-0.848;2022-08-23T11:09:06;27.10;99.90
42743;DHT22;28397;44.552;-0.848;2022-08-23T11:11:47;27.30;99.90
42743;DHT22;28397;44.552;-0.848;2022-08-23T11:14:42;26.90;99.90
42743;DHT22;28397;44.552;-0.848;2022-08-23T11:17:22;27.10;99.90
42743;DHT22;28397;44.552;-0.848;2022-08-23T11:22:32;27.30;99.90
42743;DHT22;28397;44.552;-0.848;2022-08-23T11:25:37;27.00;99.90
42743;DHT22;28397;44.552;-0.848;2022-08-23T11:36:19;27.20;99.90
42743;DHT22;28397;44.552;-0.848;2022-08-23T11:44:26;27.10;99.90
42743;DHT22;28397;44.552;-0.848;2022-08-23T11:54:46;27.50;99.90
42743;DHT22;28397;44.552;-0.848;2022-08-23T12:00:25;27.70;99.90
42743;DHT22;28397;44.552;-0.848;2022-08-23T12:03:03;27.60;99.90
42743;DHT22;28397;44.552;-0.848;2022-08-23T12:18:56;27.00;99.90
42743;DHT22;28397;44.552;-0.848;2022-08-23T12:21:27;26.90;99.90
42743;DHT22;28397;44.552;-0.848;2022-08-23T12:24:11;26.80;99.90
42743;DHT22;28397;44.552;-0.848;2022-08-23T12:26:43;27.00;99.90
42743;DHT22;28397;44.552;-0.848;2022-08-23T12:29:45;27.40;99.90
42743;DHT22;28397;44.552;-0.848;2022-08-23T12:32:26;27.50;99.90
42743;DHT22;28397;44.552;-0.848;2022-08-23T12:40:47;28.20;99.90
42743;DHT22;28397;44.552;-0.848;2022-08-23T12:43:26;28.10;99.90
42743;DHT22;28397;44.552;-0.848;2022-08-23T12:48:23;27.30;99.90
42743;DHT22;28397;44.552;-0.848;2022-08-23T12:51:01;27.80;99.90
42743;DHT22;28397;44.552;-0.848;2022-08-23T12:53:42;28.30;99.90
42743;DHT22;28397;44.552;-0.848;2022-08-23T12:56:23;27.80;99.90
42743;DHT22;28397;44.552;-0.848;2022-08-23T12:58:57;27.70;99.90
42743;DHT22;28397;44.552;-0.848;2022-08-23T13:01:33;27.90;99.90
42743;DHT22;28397;44.552;-0.848;2022-08-23T13:04:12;28.40;99.90
42743;DHT22;28397;44.552;-0.848;2022-08-23T13:06:46;28.60;99.90
42743;DHT22;28397;44.552;-0.848;2022-08-23T13:09:17;28.70;99.90
42743;DHT22;28397;44.552;-0.848;2022-08-23T13:11:45;29.00;99.90
42743;DHT22;28397;44.552;-0.848;2022-08-23T13:14:50;29.00;99.90
42743;DHT22;28397;44.552;-0.848;2022-08-23T13:20:19;28.90;99.90
42743;DHT22;28397;44.552;-0.848;2022-08-23T13:23:03;28.50;99.90
42743;DHT22;28397;44.552;-0.848;2022-08-23T13:25:34;28.60;99.90
42743;DHT22;28397;44.552;-0.848;2022-08-23T13:28:04;28.60;99.90
42743;DHT22;28397;44.552;-0.848;2022-08-23T13:30:36;28.40;99.90
42743;DHT22;28397;44.552;-0.848;2022-08-23T13:38:14;28.90;99.90
42743;DHT22;28397;44.552;-0.848;2022-08-23T13:43:18;28.80;99.90
42743;DHT22;28397;44.552;-0.848;2022-08-23T13:45:48;29.20;99.90
42743;DHT22;28397;44.552;-0.848;2022-08-23T13:48:31;29.00;99.90
42743;DHT22;28397;44.552;-0.848;2022-08-23T13:51:37;29.00;99.90
42743;DHT22;28397;44.552;-0.848;2022-08-23T13:54:07;28.60;99.90
42743;DHT22;28397;44.552;-0.848;2022-08-23T13:56:38;28.50;99.90
42743;DHT22;28397;44.552;-0.848;2022-08-23T13:59:18;28.40;99.90
42743;DHT22;28397;44.552;-0.848;2022-08-23T14:01:45;28.10;99.90
42743;DHT22;28397;44.552;-0.848;2022-08-23T14:04:11;28.30;99.90
42743;DHT22;28397;44.552;-0.848;2022-08-23T14:06:37;28.30;99.90
42743;DHT22;28397;44.552;-0.848;2022-08-23T14:09:02;28.40;99.90
42743;DHT22;28397;44.552;-0.848;2022-08-23T14:11:31;28.60;99.90
42743;DHT22;28397;44.552;-0.848;2022-08-23T14:13:58;28.50;99.90
42743;DHT22;28397;44.552;-0.848;2022-08-23T14:16:27;28.40;99.90
42743;DHT22;28397;44.552;-0.848;2022-08-23T14:18:53;28.50;99.90
42743;DHT22;28397;44.552;-0.848;2022-08-23T14:21:19;28.40;99.90
42743;DHT22;28397;44.552;-0.848;2022-08-23T14:23:44;28.40;99.90
42743;DHT22;28397;44.552;-0.848;2022-08-23T14:26:15;28.30;99.90
42743;DHT22;28397;44.552;-0.848;2022-08-23T14:28:42;28.40;99.90
42743;DHT22;28397;44.552;-0.848;2022-08-23T14:31:08;28.30;99.90
42743;DHT22;28397;44.552;-0.848;2022-08-23T14:33:34;28.50;99.90
42743;DHT22;28397;44.552;-0.848;2022-08-23T14:36:00;28.50;99.90
42743;DHT22;28397;44.552;-0.848;2022-08-23T14:38:25;28.40;99.90
42743;DHT22;28397;44.552;-0.848;2022-08-23T14:40:54;28.50;99.90
42743;DHT22;28397;44.552;-0.848;2022-08-23T14:43:21;28.40;99.90
42743;DHT22;28397;44.552;-0.848;2022-08-23T14:45:47;28.50;99.90
42743;DHT22;28397;44.552;-0.848;2022-08-23T14:48:13;28.60;99.90
42743;DHT22;28397;44.552;-0.848;2022-08-23T14:50:40;28.50;99.90
42743;DHT22;28397;44.552;-0.848;2022-08-23T14:53:07;28.40;99.90
42743;DHT22;28397;44.552;-0.848;2022-08-23T14:55:33;28.40;99.90
42743;DHT22;28397;44.552;-0.848;2022-08-23T14:57:58;28.50;99.90
42743;DHT22;28397;44.552;-0.848;2022-08-23T15:00:25;28.60;99.90
42743;DHT22;28397;44.552;-0.848;2022-08-23T15:02:51;28.20;99.90
42743;DHT22;28397;44.552;-0.848;2022-08-23T15:05:17;28.30;99.90
42743;DHT22;28397;44.552;-0.848;2022-08-23T15:07:43;28.30;99.90
42743;DHT22;28397;44.552;-0.848;2022-08-23T15:10:10;28.20;99.90
42743;DHT22;28397;44.552;-0.848;2022-08-23T15:12:36;28.30;99.90
42743;DHT22;28397;44.552;-0.848;2022-08-23T15:15:05;28.20;99.90
42743;DHT22;28397;44.552;-0.848;2022-08-23T15:17:36;28.40;99.90
42743;DHT22;28397;44.552;-0.848;2022-08-23T15:20:03;28.30;99.90
42743;DHT22;28397;44.552;-0.848;2022-08-23T15:22:29;28.30;99.90
42743;DHT22;28397;44.552;-0.848;2022-08-23T15:24:54;28.40;99.90
42743;DHT22;28397;44.552;-0.848;2022-08-23T15:27:21;28.30;99.90
42743;DHT22;28397;44.552;-0.848;2022-08-23T15:29:48;28.50;99.90
42743;DHT22;28397;44.552;-0.848;2022-08-23T15:32:14;28.30;99.90
42743;DHT22;28397;44.552;-0.848;2022-08-23T15:34:39;28.40;99.90
42743;DHT22;28397;44.552;-0.848;2022-08-23T15:37:05;28.50;99.90
42743;DHT22;28397;44.552;-0.848;2022-08-23T15:39:31;28.40;99.90
42743;DHT22;28397;44.552;-0.848;2022-08-23T15:41:57;28.50;99.90
42743;DHT22;28397;44.552;-0.848;2022-08-23T15:44:22;28.70;99.90
42743;DHT22;28397;44.552;-0.848;2022-08-23T15:46:48;28.50;99.90
42743;DHT22;28397;44.552;-0.848;2022-08-23T15:49:15;28.60;99.90
42743;DHT22;28397;44.552;-0.848;2022-08-23T15:51:41;28.60;99.90
42743;DHT22;28397;44.552;-0.848;2022-08-23T15:54:08;28.60;99.90
42743;DHT22;28397;44.552;-0.848;2022-08-23T15:56:47;28.40;99.90
42743;DHT22;28397;44.552;-0.848;2022-08-23T15:59:15;28.30;99.90
42743;DHT22;28397;44.552;-0.848;2022-08-23T16:01:42;28.60;99.90
42743;DHT22;28397;44.552;-0.848;2022-08-23T16:04:08;28.50;99.90
42743;DHT22;28397;44.552;-0.848;2022-08-23T16:06:36;28.50;99.90
42743;DHT22;28397;44.552;-0.848;2022-08-23T16:09:03;28.40;99.90
42743;DHT22;28397;44.552;-0.848;2022-08-23T16:11:29;28.50;99.90
42743;DHT22;28397;44.552;-0.848;2022-08-23T16:13:56;28.70;99.90
42743;DHT22;28397;44.552;-0.848;2022-08-23T16:16:27;28.40;99.90
42743;DHT22;28397;44.552;-0.848;2022-08-23T16:18:55;28.40;99.90
42743;DHT22;28397;44.552;-0.848;2022-08-23T16:21:23;28.40;99.90
42743;DHT22;28397;44.552;-0.848;2022-08-23T16:23:52;28.40;99.90
42743;DHT22;28397;44.552;-0.848;2022-08-23T16:26:24;28.50;99.90
42743;DHT22;28397;44.552;-0.848;2022-08-23T16:28:53;28.70;99.90
42743;DHT22;28397;44.552;-0.848;2022-08-23T16:31:18;28.50;99.90
42743;DHT22;28397;44.552;-0.848;2022-08-23T16:33:44;28.70;99.90
42743;DHT22;28397;44.552;-0.848;2022-08-23T16:36:14;28.80;99.90
42743;DHT22;28397;44.552;-0.848;2022-08-23T16:38:43;28.70;99.90
42743;DHT22;28397;44.552;-0.848;2022-08-23T16:41:09;28.50;99.90
42743;DHT22;28397;44.552;-0.848;2022-08-23T16:43:34;28.60;99.90
42743;DHT22;28397;44.552;-0.848;2022-08-23T16:46:00;28.60;99.90
42743;DHT22;28397;44.552;-0.848;2022-08-23T16:48:27;28.50;99.90
42743;DHT22;28397;44.552;-0.848;2022-08-23T16:50:53;28.70;99.90
42743;DHT22;28397;44.552;-0.848;2022-08-23T16:53:19;28.60;99.90
42743;DHT22;28397;44.552;-0.848;2022-08-23T16:55:44;28.70;99.90
42743;DHT22;28397;44.552;-0.848;2022-08-23T16:58:10;28.50;99.90
42743;DHT22;28397;44.552;-0.848;2022-08-23T17:00:36;28.50;99.90
42743;DHT22;28397;44.552;-0.848;2022-08-23T17:03:04;28.50;99.90
42743;DHT22;28397;44.552;-0.848;2022-08-23T17:05:30;28.60;99.90
42743;DHT22;28397;44.552;-0.848;2022-08-23T17:07:56;28.40;99.90
42743;DHT22;28397;44.552;-0.848;2022-08-23T17:10:22;28.40;99.90
42743;DHT22;28397;44.552;-0.848;2022-08-23T17:12:50;28.40;99.90
42743;DHT22;28397;44.552;-0.848;2022-08-23T17:15:22;28.50;99.90
42743;DHT22;28397;44.552;-0.848;2022-08-23T17:17:48;28.70;99.90
42743;DHT22;28397;44.552;-0.848;2022-08-23T17:20:15;28.60;99.90
42743;DHT22;28397;44.552;-0.848;2022-08-23T17:22:41;28.40;99.90
42743;DHT22;28397;44.552;-0.848;2022-08-23T17:25:09;28.20;99.90
42743;DHT22;28397;44.552;-0.848;2022-08-23T17:27:36;28.30;99.90
42743;DHT22;28397;44.552;-0.848;2022-08-23T17:30:07;28.50;99.90
42743;DHT22;28397;44.552;-0.848;2022-08-23T17:32:36;28.40;99.90
42743;DHT22;28397;44.552;-0.848;2022-08-23T17:35:06;28.30;99.90
42743;DHT22;28397;44.552;-0.848;2022-08-23T17:37:33;28.30;99.90
42743;DHT22;28397;44.552;-0.848;2022-08-23T17:40:00;28.30;99.90
42743;DHT22;28397;44.552;-0.848;2022-08-23T17:42:26;28.30;99.90
42743;DHT22;28397;44.552;-0.848;2022-08-23T17:44:52;28.10;99.90
42743;DHT22;28397;44.552;-0.848;2022-08-23T17:47:18;28.30;99.90
42743;DHT22;28397;44.552;-0.848;2022-08-23T17:49:45;28.20;99.90
42743;DHT22;28397;44.552;-0.848;2022-08-23T17:52:12;28.10;99.90
42743;DHT22;28397;44.552;-0.848;2022-08-23T17:54:39;28.00;99.90
42743;DHT22;28397;44.552;-0.848;2022-08-23T17:57:06;28.20;99.90
42743;DHT22;28397;44.552;-0.848;2022-08-23T17:59:32;28.00;99.90
42743;DHT22;28397;44.552;-0.848;2022-08-23T18:01:57;27.90;99.90
42743;DHT22;28397;44.552;-0.848;2022-08-23T18:04:23;27.90;99.90